sensor_id;sensor_type;location;lat;lon;timestamp;P1;durP1;ratioP1;P2;durP2;ratioP2
54787;SDS011;59598;48.112;16.280;2023-07-20T00:00:31;2.53;;;1.67;;
54787;SDS011;59598;48.112;16.280;2023-07-20T00:03:13;2.05;;;1.70;;
54787;SDS011;59598;48.112;16.280;2023-07-20T00:05:56;3.10;;;1.70;;
54787;SDS011;59598;48.112;16.280;2023-07-20T00:08:30;3.45;;;1.77;;
54787;SDS011;59598;48.112;16.280;2023-07-20T00:11:01;2.47;;;1.80;;
54787;SDS011;59598;48.112;16.280;2023-07-20T00:13:35;3.05;;;2.13;;
54787;SDS011;59598;48.112;16.280;2023-07-20T00:16:08;2.58;;;1.63;;
54787;SDS011;59598;48.112;16.280;2023-07-20T00:21:16;2.92;;;2.13;;
54787;SDS011;59598;48.112;16.280;2023-07-20T00:23:56;3.03;;;2.00;;
54787;SDS011;59598;48.112;16.280;2023-07-20T00:26:31;2.90;;;2.10;;
54787;SDS011;59598;48.112;16.280;2023-07-20T00:29:02;2.05;;;1.70;;
54787;SDS011;59598;48.112;16.280;2023-07-20T00:31:34;2.92;;;2.03;;
54787;SDS011;59598;48.112;16.280;2023-07-20T00:34:07;3.25;;;2.10;;
54787;SDS011;59598;48.112;16.280;2023-07-20T00:36:39;4.90;;;2.10;;
54787;SDS011;59598;48.112;16.280;2023-07-20T00:39:13;2.95;;;1.90;;
54787;SDS011;59598;48.112;16.280;2023-07-20T00:41:47;3.22;;;2.10;;
54787;SDS011;59598;48.112;16.280;2023-07-20T00:44:18;2.60;;;1.70;;
54787;SDS011;59598;48.112;16.280;2023-07-20T00:46:50;2.25;;;1.90;;
54787;SDS011;59598;48.112;16.280;2023-07-20T00:49:23;2.93;;;1.90;;
54787;SDS011;59598;48.112;16.280;2023-07-20T00:51:55;2.80;;;1.92;;
54787;SDS011;59598;48.112;16.280;2023-07-20T00:54:29;3.15;;;2.13;;
54787;SDS011;59598;48.112;16.280;2023-07-20T00:57:07;2.75;;;1.85;;
54787;SDS011;59598;48.112;16.280;2023-07-20T00:59:47;2.88;;;2.10;;
54787;SDS011;59598;48.112;16.280;2023-07-20T01:02:19;2.28;;;1.80;;
54787;SDS011;59598;48.112;16.280;2023-07-20T01:04:50;2.75;;;1.98;;
54787;SDS011;59598;48.112;16.280;2023-07-20T01:08:07;3.58;;;2.08;;
54787;SDS011;59598;48.112;16.280;2023-07-20T01:10:54;3.75;;;1.70;;
54787;SDS011;59598;48.112;16.280;2023-07-20T01:13:33;2.15;;;1.95;;
54787;SDS011;59598;48.112;16.280;2023-07-20T01:16:08;2.40;;;1.80;;
54787;SDS011;59598;48.112;16.280;2023-07-20T01:18:41;2.55;;;1.52;;
54787;SDS011;59598;48.112;16.280;2023-07-20T01:21:15;2.45;;;1.67;;
54787;SDS011;59598;48.112;16.280;2023-07-20T01:32:37;2.22;;;1.52;;
54787;SDS011;59598;48.112;16.280;2023-07-20T01:35:15;2.75;;;1.98;;
54787;SDS011;59598;48.112;16.280;2023-07-20T01:37:52;2.38;;;1.90;;
54787;SDS011;59598;48.112;16.280;2023-07-20T01:40:28;3.35;;;1.60;;
54787;SDS011;59598;48.112;16.280;2023-07-20T01:43:02;2.30;;;1.52;;
54787;SDS011;59598;48.112;16.280;2023-07-20T01:45:33;4.63;;;1.90;;
54787;SDS011;59598;48.112;16.280;2023-07-20T01:48:07;2.97;;;1.85;;
54787;SDS011;59598;48.112;16.280;2023-07-20T01:50:43;5.43;;;2.05;;
54787;SDS011;59598;48.112;16.280;2023-07-20T01:53:17;5.50;;;2.13;;
54787;SDS011;59598;48.112;16.280;2023-07-20T01:55:57;3.20;;;1.83;;
54787;SDS011;59598;48.112;16.280;2023-07-20T01:58:31;3.38;;;2.25;;
54787;SDS011;59598;48.112;16.280;2023-07-20T02:01:02;2.50;;;2.17;;
54787;SDS011;59598;48.112;16.280;2023-07-20T02:03:35;2.35;;;1.70;;
54787;SDS011;59598;48.112;16.280;2023-07-20T02:06:09;3.22;;;1.70;;
54787;SDS011;59598;48.112;16.280;2023-07-20T02:08:42;3.30;;;2.00;;
54787;SDS011;59598;48.112;16.280;2023-07-20T02:11:19;4.95;;;1.85;;
54787;SDS011;59598;48.112;16.280;2023-07-20T02:13:54;4.38;;;2.65;;
54787;SDS011;59598;48.112;16.280;2023-07-20T02:16:25;2.55;;;1.95;;
54787;SDS011;59598;48.112;16.280;2023-07-20T02:18:59;2.92;;;1.75;;
54787;SDS011;59598;48.112;16.280;2023-07-20T02:21:31;2.30;;;1.65;;
54787;SDS011;59598;48.112;16.280;2023-07-20T02:24:02;2.85;;;2.13;;
54787;SDS011;59598;48.112;16.280;2023-07-20T02:26:37;4.32;;;2.00;;
54787;SDS011;59598;48.112;16.280;2023-07-20T02:29:12;2.58;;;1.98;;
54787;SDS011;59598;48.112;16.280;2023-07-20T02:31:43;2.75;;;1.60;;
54787;SDS011;59598;48.112;16.280;2023-07-20T02:34:20;2.08;;;1.88;;
54787;SDS011;59598;48.112;16.280;2023-07-20T02:36:57;3.03;;;1.83;;
54787;SDS011;59598;48.112;16.280;2023-07-20T02:42:05;2.28;;;1.70;;
54787;SDS011;59598;48.112;16.280;2023-07-20T02:44:36;2.92;;;1.52;;
54787;SDS011;59598;48.112;16.280;2023-07-20T02:47:10;3.60;;;2.00;;
54787;SDS011;59598;48.112;16.280;2023-07-20T02:52:15;2.55;;;1.90;;
54787;SDS011;59598;48.112;16.280;2023-07-20T02:54:47;3.33;;;1.80;;
54787;SDS011;59598;48.112;16.280;2023-07-20T02:57:18;3.92;;;2.20;;
54787;SDS011;59598;48.112;16.280;2023-07-20T02:59:50;1.98;;;1.73;;
54787;SDS011;59598;48.112;16.280;2023-07-20T03:05:05;2.65;;;2.03;;
54787;SDS011;59598;48.112;16.280;2023-07-20T03:07:37;4.20;;;1.45;;
54787;SDS011;59598;48.112;16.280;2023-07-20T03:10:14;2.92;;;1.58;;
54787;SDS011;59598;48.112;16.280;2023-07-20T03:12:45;2.38;;;1.63;;
54787;SDS011;59598;48.112;16.280;2023-07-20T03:15:18;1.95;;;1.60;;
54787;SDS011;59598;48.112;16.280;2023-07-20T03:17:49;1.92;;;1.50;;
54787;SDS011;59598;48.112;16.280;2023-07-20T03:20:22;3.10;;;1.90;;
54787;SDS011;59598;48.112;16.280;2023-07-20T03:22:53;2.50;;;1.67;;
54787;SDS011;59598;48.112;16.280;2023-07-20T03:25:24;2.92;;;1.52;;
54787;SDS011;59598;48.112;16.280;2023-07-20T03:27:56;1.67;;;1.40;;
54787;SDS011;59598;48.112;16.280;2023-07-20T03:30:29;3.92;;;1.65;;
54787;SDS011;59598;48.112;16.280;2023-07-20T03:33:02;2.65;;;1.63;;
54787;SDS011;59598;48.112;16.280;2023-07-20T03:35:34;3.08;;;1.75;;
54787;SDS011;59598;48.112;16.280;2023-07-20T03:38:08;2.30;;;1.88;;
54787;SDS011;59598;48.112;16.280;2023-07-20T03:40:56;3.30;;;2.00;;
54787;SDS011;59598;48.112;16.280;2023-07-20T03:43:31;2.78;;;1.58;;
54787;SDS011;59598;48.112;16.280;2023-07-20T03:46:07;3.10;;;1.77;;
54787;SDS011;59598;48.112;16.280;2023-07-20T03:48:39;3.35;;;2.05;;
54787;SDS011;59598;48.112;16.280;2023-07-20T03:51:15;3.28;;;2.03;;
54787;SDS011;59598;48.112;16.280;2023-07-20T03:53:50;2.75;;;1.40;;
54787;SDS011;59598;48.112;16.280;2023-07-20T03:56:26;2.63;;;1.80;;
54787;SDS011;59598;48.112;16.280;2023-07-20T03:59:07;3.38;;;1.80;;
54787;SDS011;59598;48.112;16.280;2023-07-20T04:01:43;3.40;;;1.70;;
54787;SDS011;59598;48.112;16.280;2023-07-20T04:04:15;2.43;;;1.83;;
54787;SDS011;59598;48.112;16.280;2023-07-20T04:06:56;4.85;;;1.88;;
54787;SDS011;59598;48.112;16.280;2023-07-20T04:09:32;1.83;;;1.73;;
54787;SDS011;59598;48.112;16.280;2023-07-20T04:12:05;4.63;;;1.65;;
54787;SDS011;59598;48.112;16.280;2023-07-20T04:14:42;2.33;;;1.60;;
54787;SDS011;59598;48.112;16.280;2023-07-20T04:17:15;2.25;;;1.73;;
54787;SDS011;59598;48.112;16.280;2023-07-20T04:19:56;2.70;;;1.77;;
54787;SDS011;59598;48.112;16.280;2023-07-20T04:22:27;4.07;;;1.55;;
54787;SDS011;59598;48.112;16.280;2023-07-20T04:25:04;3.45;;;1.77;;
54787;SDS011;59598;48.112;16.280;2023-07-20T04:27:47;2.45;;;1.75;;
54787;SDS011;59598;48.112;16.280;2023-07-20T04:30:18;2.13;;;1.60;;
54787;SDS011;59598;48.112;16.280;2023-07-20T04:32:54;3.03;;;2.05;;
54787;SDS011;59598;48.112;16.280;2023-07-20T04:38:27;2.65;;;1.90;;
54787;SDS011;59598;48.112;16.280;2023-07-20T04:41:01;2.42;;;1.73;;
54787;SDS011;59598;48.112;16.280;2023-07-20T04:43:44;2.42;;;1.77;;
54787;SDS011;59598;48.112;16.280;2023-07-20T04:46:15;2.80;;;1.95;;
54787;SDS011;59598;48.112;16.280;2023-07-20T04:48:49;2.65;;;1.83;;
54787;SDS011;59598;48.112;16.280;2023-07-20T04:51:23;3.00;;;2.15;;
54787;SDS011;59598;48.112;16.280;2023-07-20T04:54:00;2.38;;;2.00;;
54787;SDS011;59598;48.112;16.280;2023-07-20T04:56:34;2.75;;;1.63;;
54787;SDS011;59598;48.112;16.280;2023-07-20T04:59:05;2.35;;;1.70;;
54787;SDS011;59598;48.112;16.280;2023-07-20T05:01:37;2.40;;;1.85;;
54787;SDS011;59598;48.112;16.280;2023-07-20T05:04:11;2.40;;;1.70;;
54787;SDS011;59598;48.112;16.280;2023-07-20T05:06:42;3.38;;;2.03;;
54787;SDS011;59598;48.112;16.280;2023-07-20T05:09:16;1.83;;;1.42;;
54787;SDS011;59598;48.112;16.280;2023-07-20T05:11:51;2.47;;;1.90;;
54787;SDS011;59598;48.112;16.280;2023-07-20T05:14:27;1.75;;;1.58;;
54787;SDS011;59598;48.112;16.280;2023-07-20T05:16:58;3.55;;;2.30;;
54787;SDS011;59598;48.112;16.280;2023-07-20T05:19:32;2.20;;;1.85;;
54787;SDS011;59598;48.112;16.280;2023-07-20T05:22:04;2.78;;;1.90;;
54787;SDS011;59598;48.112;16.280;2023-07-20T05:24:36;2.10;;;1.55;;
54787;SDS011;59598;48.112;16.280;2023-07-20T05:27:09;2.38;;;1.60;;
54787;SDS011;59598;48.112;16.280;2023-07-20T05:29:47;3.20;;;1.80;;
54787;SDS011;59598;48.112;16.280;2023-07-20T05:32:22;3.88;;;1.77;;
54787;SDS011;59598;48.112;16.280;2023-07-20T05:34:56;2.42;;;1.50;;
54787;SDS011;59598;48.112;16.280;2023-07-20T05:37:27;1.73;;;1.63;;
54787;SDS011;59598;48.112;16.280;2023-07-20T05:40:00;3.67;;;2.08;;
54787;SDS011;59598;48.112;16.280;2023-07-20T05:42:34;5.63;;;1.88;;
54787;SDS011;59598;48.112;16.280;2023-07-20T05:45:06;2.22;;;1.58;;
54787;SDS011;59598;48.112;16.280;2023-07-20T05:47:39;1.98;;;1.70;;
54787;SDS011;59598;48.112;16.280;2023-07-20T05:50:15;3.78;;;1.58;;
54787;SDS011;59598;48.112;16.280;2023-07-20T05:55:23;2.97;;;1.58;;
54787;SDS011;59598;48.112;16.280;2023-07-20T06:00:28;6.63;;;2.42;;
54787;SDS011;59598;48.112;16.280;2023-07-20T06:03:02;2.72;;;2.20;;
54787;SDS011;59598;48.112;16.280;2023-07-20T06:05:34;3.45;;;1.73;;
54787;SDS011;59598;48.112;16.280;2023-07-20T06:08:05;2.05;;;1.60;;
54787;SDS011;59598;48.112;16.280;2023-07-20T06:10:37;3.63;;;1.40;;
54787;SDS011;59598;48.112;16.280;2023-07-20T06:13:09;2.42;;;1.80;;
54787;SDS011;59598;48.112;16.280;2023-07-20T06:15:42;2.38;;;1.55;;
54787;SDS011;59598;48.112;16.280;2023-07-20T06:18:18;3.17;;;2.28;;
54787;SDS011;59598;48.112;16.280;2023-07-20T06:20:52;1.83;;;1.45;;
54787;SDS011;59598;48.112;16.280;2023-07-20T06:23:26;3.28;;;1.50;;
54787;SDS011;59598;48.112;16.280;2023-07-20T06:25:57;2.70;;;1.80;;
54787;SDS011;59598;48.112;16.280;2023-07-20T06:28:31;2.63;;;1.63;;
54787;SDS011;59598;48.112;16.280;2023-07-20T06:31:07;3.28;;;1.60;;
54787;SDS011;59598;48.112;16.280;2023-07-20T06:33:46;3.95;;;2.05;;
54787;SDS011;59598;48.112;16.280;2023-07-20T06:36:20;4.03;;;2.25;;
54787;SDS011;59598;48.112;16.280;2023-07-20T06:38:56;2.65;;;1.85;;
54787;SDS011;59598;48.112;16.280;2023-07-20T06:41:33;3.58;;;1.77;;
54787;SDS011;59598;48.112;16.280;2023-07-20T06:44:07;3.30;;;1.95;;
54787;SDS011;59598;48.112;16.280;2023-07-20T06:46:39;2.20;;;1.90;;
54787;SDS011;59598;48.112;16.280;2023-07-20T06:49:15;2.58;;;1.77;;
54787;SDS011;59598;48.112;16.280;2023-07-20T06:52:01;1.90;;;1.45;;
54787;SDS011;59598;48.112;16.280;2023-07-20T06:54:35;1.90;;;1.33;;
54787;SDS011;59598;48.112;16.280;2023-07-20T06:57:09;3.25;;;1.75;;
54787;SDS011;59598;48.112;16.280;2023-07-20T06:59:46;3.22;;;1.60;;
54787;SDS011;59598;48.112;16.280;2023-07-20T07:02:20;3.53;;;1.60;;
54787;SDS011;59598;48.112;16.280;2023-07-20T07:04:51;4.80;;;1.90;;
54787;SDS011;59598;48.112;16.280;2023-07-20T07:07:28;2.33;;;1.75;;
54787;SDS011;59598;48.112;16.280;2023-07-20T07:10:02;2.97;;;1.80;;
54787;SDS011;59598;48.112;16.280;2023-07-20T07:12:35;2.93;;;1.80;;
54787;SDS011;59598;48.112;16.280;2023-07-20T07:15:12;1.73;;;1.38;;
54787;SDS011;59598;48.112;16.280;2023-07-20T07:17:43;1.83;;;1.70;;
54787;SDS011;59598;48.112;16.280;2023-07-20T07:20:15;2.75;;;2.03;;
54787;SDS011;59598;48.112;16.280;2023-07-20T07:22:46;1.73;;;1.58;;
54787;SDS011;59598;48.112;16.280;2023-07-20T07:25:23;1.92;;;1.60;;
54787;SDS011;59598;48.112;16.280;2023-07-20T07:28:00;2.10;;;1.75;;
54787;SDS011;59598;48.112;16.280;2023-07-20T07:30:31;3.35;;;1.75;;
54787;SDS011;59598;48.112;16.280;2023-07-20T07:33:07;3.72;;;1.85;;
54787;SDS011;59598;48.112;16.280;2023-07-20T07:35:39;2.80;;;1.55;;
54787;SDS011;59598;48.112;16.280;2023-07-20T07:38:13;2.50;;;1.70;;
54787;SDS011;59598;48.112;16.280;2023-07-20T07:40:53;2.80;;;1.67;;
54787;SDS011;59598;48.112;16.280;2023-07-20T07:43:27;1.65;;;1.52;;
54787;SDS011;59598;48.112;16.280;2023-07-20T07:46:02;2.53;;;1.92;;
54787;SDS011;59598;48.112;16.280;2023-07-20T07:48:38;4.43;;;1.92;;
54787;SDS011;59598;48.112;16.280;2023-07-20T07:51:14;2.78;;;1.95;;
54787;SDS011;59598;48.112;16.280;2023-07-20T07:53:49;1.50;;;1.38;;
54787;SDS011;59598;48.112;16.280;2023-07-20T07:56:30;2.85;;;1.63;;
54787;SDS011;59598;48.112;16.280;2023-07-20T07:59:06;2.17;;;1.50;;
54787;SDS011;59598;48.112;16.280;2023-07-20T08:01:40;4.10;;;2.10;;
54787;SDS011;59598;48.112;16.280;2023-07-20T08:04:16;2.70;;;1.60;;
54787;SDS011;59598;48.112;16.280;2023-07-20T08:09:24;3.33;;;1.73;;
54787;SDS011;59598;48.112;16.280;2023-07-20T08:11:56;2.40;;;2.15;;
54787;SDS011;59598;48.112;16.280;2023-07-20T08:14:30;2.00;;;1.73;;
54787;SDS011;59598;48.112;16.280;2023-07-20T08:17:03;1.48;;;1.15;;
54787;SDS011;59598;48.112;16.280;2023-07-20T08:19:36;2.70;;;1.65;;
54787;SDS011;59598;48.112;16.280;2023-07-20T08:22:13;3.75;;;1.60;;
54787;SDS011;59598;48.112;16.280;2023-07-20T08:24:47;2.13;;;1.63;;
54787;SDS011;59598;48.112;16.280;2023-07-20T08:27:21;3.20;;;1.35;;
54787;SDS011;59598;48.112;16.280;2023-07-20T08:32:27;3.25;;;1.70;;
54787;SDS011;59598;48.112;16.280;2023-07-20T08:34:58;2.30;;;1.73;;
54787;SDS011;59598;48.112;16.280;2023-07-20T08:37:29;1.55;;;1.40;;
54787;SDS011;59598;48.112;16.280;2023-07-20T08:40:07;1.60;;;1.23;;
54787;SDS011;59598;48.112;16.280;2023-07-20T08:42:40;1.45;;;1.35;;
54787;SDS011;59598;48.112;16.280;2023-07-20T08:45:15;2.50;;;1.75;;
54787;SDS011;59598;48.112;16.280;2023-07-20T08:47:52;1.95;;;1.45;;
54787;SDS011;59598;48.112;16.280;2023-07-20T08:50:29;1.77;;;1.50;;
54787;SDS011;59598;48.112;16.280;2023-07-20T08:53:04;1.83;;;1.52;;
54787;SDS011;59598;48.112;16.280;2023-07-20T08:55:36;2.15;;;1.73;;
54787;SDS011;59598;48.112;16.280;2023-07-20T08:58:11;1.50;;;1.40;;
54787;SDS011;59598;48.112;16.280;2023-07-20T09:00:45;1.95;;;1.73;;
54787;SDS011;59598;48.112;16.280;2023-07-20T09:03:21;1.55;;;1.25;;
54787;SDS011;59598;48.112;16.280;2023-07-20T09:05:58;1.95;;;1.40;;
54787;SDS011;59598;48.112;16.280;2023-07-20T09:08:39;1.33;;;1.10;;
54787;SDS011;59598;48.112;16.280;2023-07-20T09:11:11;2.28;;;1.30;;
54787;SDS011;59598;48.112;16.280;2023-07-20T09:13:46;3.35;;;1.40;;
54787;SDS011;59598;48.112;16.280;2023-07-20T09:16:20;4.82;;;1.48;;
54787;SDS011;59598;48.112;16.280;2023-07-20T09:18:57;1.42;;;1.25;;
54787;SDS011;59598;48.112;16.280;2023-07-20T09:21:32;1.30;;;1.08;;
54787;SDS011;59598;48.112;16.280;2023-07-20T09:24:06;1.23;;;1.10;;
54787;SDS011;59598;48.112;16.280;2023-07-20T09:26:41;1.00;;;0.95;;
54787;SDS011;59598;48.112;16.280;2023-07-20T09:29:19;1.85;;;1.40;;
54787;SDS011;59598;48.112;16.280;2023-07-20T09:32:02;1.52;;;1.20;;
54787;SDS011;59598;48.112;16.280;2023-07-20T09:34:39;1.98;;;1.50;;
54787;SDS011;59598;48.112;16.280;2023-07-20T09:37:23;1.42;;;1.10;;
54787;SDS011;59598;48.112;16.280;2023-07-20T09:39:55;1.48;;;1.15;;
54787;SDS011;59598;48.112;16.280;2023-07-20T09:42:29;2.72;;;1.48;;
54787;SDS011;59598;48.112;16.280;2023-07-20T09:45:03;1.73;;;1.50;;
54787;SDS011;59598;48.112;16.280;2023-07-20T09:47:37;1.48;;;1.20;;
54787;SDS011;59598;48.112;16.280;2023-07-20T09:50:10;1.60;;;1.20;;
54787;SDS011;59598;48.112;16.280;2023-07-20T09:52:42;1.58;;;1.20;;
54787;SDS011;59598;48.112;16.280;2023-07-20T09:55:18;1.70;;;1.40;;
54787;SDS011;59598;48.112;16.280;2023-07-20T09:57:52;1.20;;;1.10;;
54787;SDS011;59598;48.112;16.280;2023-07-20T10:00:26;1.40;;;1.30;;
54787;SDS011;59598;48.112;16.280;2023-07-20T10:05:34;1.45;;;1.30;;
54787;SDS011;59598;48.112;16.280;2023-07-20T10:08:10;1.73;;;1.20;;
54787;SDS011;59598;48.112;16.280;2023-07-20T10:10:44;1.30;;;1.05;;
54787;SDS011;59598;48.112;16.280;2023-07-20T10:13:18;2.37;;;1.63;;
54787;SDS011;59598;48.112;16.280;2023-07-20T10:18:49;1.13;;;0.98;;
54787;SDS011;59598;48.112;16.280;2023-07-20T10:21:30;1.50;;;1.20;;
54787;SDS011;59598;48.112;16.280;2023-07-20T10:24:10;3.42;;;1.52;;
54787;SDS011;59598;48.112;16.280;2023-07-20T10:26:45;1.63;;;0.95;;
54787;SDS011;59598;48.112;16.280;2023-07-20T10:29:22;1.50;;;1.38;;
54787;SDS011;59598;48.112;16.280;2023-07-20T10:31:58;2.97;;;1.38;;
54787;SDS011;59598;48.112;16.280;2023-07-20T10:34:35;2.15;;;1.17;;
54787;SDS011;59598;48.112;16.280;2023-07-20T10:37:11;1.90;;;1.55;;
54787;SDS011;59598;48.112;16.280;2023-07-20T10:40:38;1.38;;;1.27;;
54787;SDS011;59598;48.112;16.280;2023-07-20T10:43:10;1.70;;;1.27;;
54787;SDS011;59598;48.112;16.280;2023-07-20T10:45:47;3.67;;;2.00;;
54787;SDS011;59598;48.112;16.280;2023-07-20T10:48:23;1.45;;;1.10;;
54787;SDS011;59598;48.112;16.280;2023-07-20T10:51:11;1.27;;;1.17;;
54787;SDS011;59598;48.112;16.280;2023-07-20T10:53:54;1.20;;;1.10;;
54787;SDS011;59598;48.112;16.280;2023-07-20T10:56:29;1.80;;;1.35;;
54787;SDS011;59598;48.112;16.280;2023-07-20T11:01:54;1.60;;;1.13;;
54787;SDS011;59598;48.112;16.280;2023-07-20T11:04:40;2.17;;;1.10;;
54787;SDS011;59598;48.112;16.280;2023-07-20T11:07:16;1.77;;;1.13;;
54787;SDS011;59598;48.112;16.280;2023-07-20T11:09:48;4.22;;;1.08;;
54787;SDS011;59598;48.112;16.280;2023-07-20T11:12:22;1.75;;;1.10;;
54787;SDS011;59598;48.112;16.280;2023-07-20T11:14:55;1.40;;;1.25;;
54787;SDS011;59598;48.112;16.280;2023-07-20T11:17:30;2.45;;;1.40;;
54787;SDS011;59598;48.112;16.280;2023-07-20T11:20:08;1.92;;;1.20;;
54787;SDS011;59598;48.112;16.280;2023-07-20T11:22:43;1.13;;;1.02;;
54787;SDS011;59598;48.112;16.280;2023-07-20T11:25:20;2.05;;;1.38;;
54787;SDS011;59598;48.112;16.280;2023-07-20T11:27:54;2.17;;;1.17;;
54787;SDS011;59598;48.112;16.280;2023-07-20T11:30:27;2.13;;;1.40;;
54787;SDS011;59598;48.112;16.280;2023-07-20T11:33:09;1.40;;;1.17;;
54787;SDS011;59598;48.112;16.280;2023-07-20T11:35:43;3.40;;;1.20;;
54787;SDS011;59598;48.112;16.280;2023-07-20T11:38:21;1.67;;;1.48;;
54787;SDS011;59598;48.112;16.280;2023-07-20T11:40:58;1.80;;;1.05;;
54787;SDS011;59598;48.112;16.280;2023-07-20T11:43:32;2.13;;;1.25;;
54787;SDS011;59598;48.112;16.280;2023-07-20T11:46:04;1.27;;;1.17;;
54787;SDS011;59598;48.112;16.280;2023-07-20T11:48:36;1.15;;;1.05;;
54787;SDS011;59598;48.112;16.280;2023-07-20T11:51:13;0.95;;;0.95;;
54787;SDS011;59598;48.112;16.280;2023-07-20T11:53:47;1.20;;;1.10;;
54787;SDS011;59598;48.112;16.280;2023-07-20T11:56:25;1.30;;;1.02;;
54787;SDS011;59598;48.112;16.280;2023-07-20T11:59:04;2.80;;;0.90;;
54787;SDS011;59598;48.112;16.280;2023-07-20T12:01:37;1.15;;;1.10;;
54787;SDS011;59598;48.112;16.280;2023-07-20T12:04:16;1.60;;;1.30;;
54787;SDS011;59598;48.112;16.280;2023-07-20T12:06:54;1.50;;;1.00;;
54787;SDS011;59598;48.112;16.280;2023-07-20T12:09:29;1.10;;;1.00;;
54787;SDS011;59598;48.112;16.280;2023-07-20T12:12:09;1.17;;;1.05;;
54787;SDS011;59598;48.112;16.280;2023-07-20T12:14:42;1.23;;;1.13;;
54787;SDS011;59598;48.112;16.280;2023-07-20T12:17:16;1.92;;;1.20;;
54787;SDS011;59598;48.112;16.280;2023-07-20T12:19:48;2.75;;;1.20;;
54787;SDS011;59598;48.112;16.280;2023-07-20T12:22:19;1.15;;;1.05;;
54787;SDS011;59598;48.112;16.280;2023-07-20T12:24:55;2.17;;;1.00;;
54787;SDS011;59598;48.112;16.280;2023-07-20T12:27:32;2.15;;;1.73;;
54787;SDS011;59598;48.112;16.280;2023-07-20T12:30:06;1.83;;;1.02;;
54787;SDS011;59598;48.112;16.280;2023-07-20T12:32:40;1.35;;;1.13;;
54787;SDS011;59598;48.112;16.280;2023-07-20T12:35:15;2.22;;;1.27;;
54787;SDS011;59598;48.112;16.280;2023-07-20T12:37:48;1.30;;;1.05;;
54787;SDS011;59598;48.112;16.280;2023-07-20T12:40:22;1.85;;;1.13;;
54787;SDS011;59598;48.112;16.280;2023-07-20T12:42:53;1.40;;;1.30;;
54787;SDS011;59598;48.112;16.280;2023-07-20T12:45:25;3.47;;;1.33;;
54787;SDS011;59598;48.112;16.280;2023-07-20T12:47:56;1.13;;;0.90;;
54787;SDS011;59598;48.112;16.280;2023-07-20T12:50:30;1.20;;;1.10;;
54787;SDS011;59598;48.112;16.280;2023-07-20T12:53:01;0.90;;;0.90;;
54787;SDS011;59598;48.112;16.280;2023-07-20T12:55:35;0.73;;;0.65;;
54787;SDS011;59598;48.112;16.280;2023-07-20T12:58:07;1.30;;;1.05;;
54787;SDS011;59598;48.112;16.280;2023-07-20T13:00:42;1.33;;;1.23;;
54787;SDS011;59598;48.112;16.280;2023-07-20T13:03:18;1.10;;;0.80;;
54787;SDS011;59598;48.112;16.280;2023-07-20T13:05:50;1.10;;;1.00;;
54787;SDS011;59598;48.112;16.280;2023-07-20T13:08:21;1.10;;;1.00;;
54787;SDS011;59598;48.112;16.280;2023-07-20T13:10:58;1.70;;;1.05;;
54787;SDS011;59598;48.112;16.280;2023-07-20T13:13:31;1.25;;;1.08;;
54787;SDS011;59598;48.112;16.280;2023-07-20T13:16:03;1.42;;;1.20;;
54787;SDS011;59598;48.112;16.280;2023-07-20T13:18:37;2.08;;;1.25;;
54787;SDS011;59598;48.112;16.280;2023-07-20T13:21:11;1.13;;;0.90;;
54787;SDS011;59598;48.112;16.280;2023-07-20T13:23:43;1.00;;;0.90;;
54787;SDS011;59598;48.112;16.280;2023-07-20T13:26:15;1.23;;;1.10;;
54787;SDS011;59598;48.112;16.280;2023-07-20T13:28:46;1.05;;;0.95;;
54787;SDS011;59598;48.112;16.280;2023-07-20T13:31:18;1.42;;;1.30;;
54787;SDS011;59598;48.112;16.280;2023-07-20T13:33:49;0.80;;;0.80;;
54787;SDS011;59598;48.112;16.280;2023-07-20T13:36:21;0.90;;;0.80;;
54787;SDS011;59598;48.112;16.280;2023-07-20T13:38:53;1.08;;;0.95;;
54787;SDS011;59598;48.112;16.280;2023-07-20T13:41:24;4.50;;;1.10;;
54787;SDS011;59598;48.112;16.280;2023-07-20T13:43:56;1.08;;;1.00;;
54787;SDS011;59598;48.112;16.280;2023-07-20T13:46:29;1.58;;;0.95;;
54787;SDS011;59598;48.112;16.280;2023-07-20T13:49:04;0.95;;;0.90;;
54787;SDS011;59598;48.112;16.280;2023-07-20T13:51:39;1.10;;;1.00;;
54787;SDS011;59598;48.112;16.280;2023-07-20T13:54:16;1.10;;;0.90;;
54787;SDS011;59598;48.112;16.280;2023-07-20T13:56:47;1.02;;;1.02;;
54787;SDS011;59598;48.112;16.280;2023-07-20T13:59:18;1.20;;;1.00;;
54787;SDS011;59598;48.112;16.280;2023-07-20T14:01:50;1.10;;;1.08;;
54787;SDS011;59598;48.112;16.280;2023-07-20T14:04:21;1.10;;;1.00;;
54787;SDS011;59598;48.112;16.280;2023-07-20T14:06:55;1.20;;;1.10;;
54787;SDS011;59598;48.112;16.280;2023-07-20T14:09:26;1.17;;;0.80;;
54787;SDS011;59598;48.112;16.280;2023-07-20T14:12:03;1.33;;;1.08;;
54787;SDS011;59598;48.112;16.280;2023-07-20T14:14:41;1.15;;;1.00;;
54787;SDS011;59598;48.112;16.280;2023-07-20T14:17:15;1.02;;;0.90;;
54787;SDS011;59598;48.112;16.280;2023-07-20T14:19:46;1.23;;;1.00;;
54787;SDS011;59598;48.112;16.280;2023-07-20T14:22:18;3.33;;;1.10;;
54787;SDS011;59598;48.112;16.280;2023-07-20T14:24:51;1.15;;;1.05;;
54787;SDS011;59598;48.112;16.280;2023-07-20T14:27:25;1.75;;;1.25;;
54787;SDS011;59598;48.112;16.280;2023-07-20T14:29:57;1.60;;;1.05;;
54787;SDS011;59598;48.112;16.280;2023-07-20T14:32:31;2.38;;;1.00;;
54787;SDS011;59598;48.112;16.280;2023-07-20T14:35:04;1.23;;;0.90;;
54787;SDS011;59598;48.112;16.280;2023-07-20T14:37:39;1.20;;;1.10;;
54787;SDS011;59598;48.112;16.280;2023-07-20T14:40:15;2.45;;;1.23;;
54787;SDS011;59598;48.112;16.280;2023-07-20T14:42:47;1.10;;;1.00;;
54787;SDS011;59598;48.112;16.280;2023-07-20T14:45:25;1.80;;;1.40;;
54787;SDS011;59598;48.112;16.280;2023-07-20T14:47:56;1.95;;;1.45;;
54787;SDS011;59598;48.112;16.280;2023-07-20T14:50:27;2.42;;;1.20;;
54787;SDS011;59598;48.112;16.280;2023-07-20T14:52:59;1.10;;;1.10;;
54787;SDS011;59598;48.112;16.280;2023-07-20T14:55:34;1.98;;;1.75;;
54787;SDS011;59598;48.112;16.280;2023-07-20T14:58:06;2.05;;;1.20;;
54787;SDS011;59598;48.112;16.280;2023-07-20T15:00:41;0.88;;;0.88;;
54787;SDS011;59598;48.112;16.280;2023-07-20T15:03:18;1.90;;;1.20;;
54787;SDS011;59598;48.112;16.280;2023-07-20T15:05:52;1.67;;;1.33;;
54787;SDS011;59598;48.112;16.280;2023-07-20T15:08:29;1.15;;;0.98;;
54787;SDS011;59598;48.112;16.280;2023-07-20T15:11:04;1.10;;;1.00;;
54787;SDS011;59598;48.112;16.280;2023-07-20T15:13:42;2.55;;;1.17;;
54787;SDS011;59598;48.112;16.280;2023-07-20T15:16:18;1.20;;;1.10;;
54787;SDS011;59598;48.112;16.280;2023-07-20T15:18:53;0.93;;;0.93;;
54787;SDS011;59598;48.112;16.280;2023-07-20T15:21:26;1.17;;;0.93;;
54787;SDS011;59598;48.112;16.280;2023-07-20T15:24:00;1.02;;;1.00;;
54787;SDS011;59598;48.112;16.280;2023-07-20T15:26:35;1.25;;;1.00;;
54787;SDS011;59598;48.112;16.280;2023-07-20T15:29:07;1.20;;;1.00;;
54787;SDS011;59598;48.112;16.280;2023-07-20T15:31:38;1.25;;;1.05;;
54787;SDS011;59598;48.112;16.280;2023-07-20T15:34:12;1.33;;;1.23;;
54787;SDS011;59598;48.112;16.280;2023-07-20T15:36:46;0.93;;;0.83;;
54787;SDS011;59598;48.112;16.280;2023-07-20T15:39:17;1.23;;;0.95;;
54787;SDS011;59598;48.112;16.280;2023-07-20T15:41:51;2.00;;;1.15;;
54787;SDS011;59598;48.112;16.280;2023-07-20T15:44:25;0.82;;;0.70;;
54787;SDS011;59598;48.112;16.280;2023-07-20T15:46:59;1.02;;;0.93;;
54787;SDS011;59598;48.112;16.280;2023-07-20T15:49:30;1.08;;;1.00;;
54787;SDS011;59598;48.112;16.280;2023-07-20T15:52:05;1.40;;;1.20;;
54787;SDS011;59598;48.112;16.280;2023-07-20T15:54:42;1.15;;;1.05;;
54787;SDS011;59598;48.112;16.280;2023-07-20T15:59:45;0.90;;;0.70;;